Time;durP1;ratioP1;P1;durP2;ratioP2;P2;SDS_P1;SDS_P2;PMS_P1;PMS_P2;Temp;Humidity;BMP_temperature;BMP_pressure;BME280_temperature;BME280_humidity;BME280_pressure;Samples;Min_cycle;Max_cycle;Signal;HPM_P1;HPM_P2
2021/04/27 00:01:49;;;;;;;8.13;5.97;;;8.10;78.10;;;;;;5039459;28;20190;-41
2021/04/27 00:04:15;;;;;;;7.57;6.87;;;8.20;78.80;;;;;;5048094;28;20213;-41
2021/04/27 00:06:41;;;;;;;7.20;6.50;;;8.20;79.20;;;;;;5048115;28;20589;-43
2021/04/27 00:09:08;;;;;;;7.53;5.93;;;7.80;78.60;;;;;;5047416;28;20634;-41
2021/04/27 00:11:34;;;;;;;8.30;6.43;;;7.90;78.90;;;;;;5047945;28;20399;-41
2021/04/27 00:14:01;;;;;;;7.87;6.40;;;7.90;79.00;;;;;;5048204;28;20420;-40
2021/04/27 00:16:27;;;;;;;6.93;6.23;;;8.00;78.80;;;;;;5034438;28;20425;-44
2021/04/27 00:18:52;;;;;;;6.83;6.13;;;8.00;78.70;;;;;;5048043;28;20423;-40
2021/04/27 00:21:18;;;;;;;6.93;5.97;;;8.00;79.10;;;;;;5047447;28;20197;-41
2021/04/27 00:23:44;;;;;;;7.17;5.93;;;8.00;79.10;;;;;;5047565;28;20178;-40
2021/04/27 00:26:10;;;;;;;9.47;6.37;;;7.90;79.40;;;;;;5047708;28;20463;-40
2021/04/27 00:28:36;;;;;;;6.77;6.03;;;7.90;80.00;;;;;;5047286;28;20663;-43
2021/04/27 00:31:02;;;;;;;8.10;6.73;;;7.70;80.80;;;;;;5039191;28;20251;-41
2021/04/27 00:33:27;;;;;;;7.63;6.63;;;7.50;80.90;;;;;;5040938;28;20293;-41
2021/04/27 00:35:53;;;;;;;7.47;5.90;;;7.60;81.10;;;;;;5045812;28;20299;-41
2021/04/27 00:38:19;;;;;;;7.87;6.60;;;7.70;81.40;;;;;;5047158;28;20189;-42
2021/04/27 00:40:45;;;;;;;7.10;5.83;;;7.60;82.20;;;;;;5046769;28;20212;-41
2021/04/27 00:43:10;;;;;;;7.03;6.30;;;7.60;82.10;;;;;;5047218;28;20436;-42
2021/04/27 00:45:36;;;;;;;6.83;6.13;;;7.60;82.50;;;;;;5044313;28;20238;-40
2021/04/27 00:48:02;;;;;;;8.10;6.93;;;7.90;82.40;;;;;;5040409;28;20197;-40
2021/04/27 00:50:33;;;;;;;8.00;5.83;;;7.50;82.30;;;;;;5046749;28;20260;-40
2021/04/27 00:53:00;;;;;;;8.53;7.03;;;7.50;82.40;;;;;;5046898;28;20412;-39
2021/04/27 00:55:27;;;;;;;9.00;6.77;;;7.50;82.80;;;;;;5047188;28;20547;-40
2021/04/27 00:57:53;;;;;;;6.90;6.10;;;7.70;82.80;;;;;;5047405;28;20527;-40
2021/04/27 01:00:24;;;;;;;8.30;7.07;;;7.80;82.80;;;;;;5046672;28;20702;-43
2021/04/27 01:02:50;;;;;;;8.70;6.10;;;7.50;82.50;;;;;;5036238;28;20428;-41
2021/04/27 01:05:25;;;;;;;7.83;6.00;;;7.60;82.70;;;;;;5047024;28;20498;-40
2021/04/27 01:08:10;;;;;;;7.70;6.30;;;7.80;82.70;;;;;;5047283;28;20424;-40
2021/04/27 01:11:08;;;;;;;6.80;6.20;;;7.60;82.00;;;;;;5046471;28;20455;-42
2021/04/27 01:14:05;;;;;;;7.83;6.60;;;7.90;82.60;;;;;;5046882;28;20408;-40
2021/04/27 01:16:33;;;;;;;8.73;6.60;;;7.60;82.10;;;;;;5039589;28;20801;-40
2021/04/27 01:18:59;;;;;;;7.40;6.00;;;7.60;82.90;;;;;;5043853;28;20428;-39
2021/04/27 01:21:28;;;;;;;9.23;6.57;;;7.50;82.70;;;;;;5046682;28;20458;-40
2021/04/27 01:24:15;;;;;;;8.70;6.60;;;7.50;82.70;;;;;;5046723;28;20448;-40
2021/04/27 01:26:50;;;;;;;9.70;6.50;;;7.60;82.90;;;;;;5046448;28;20962;-40
2021/04/27 01:29:19;;;;;;;8.03;6.73;;;7.50;83.10;;;;;;5046519;28;20459;-40
2021/04/27 01:31:46;;;;;;;8.17;6.47;;;7.70;83.50;;;;;;5038933;28;20444;-40
2021/04/27 01:34:15;;;;;;;9.87;6.73;;;7.40;83.30;;;;;;5044137;28;20498;-41
2021/04/27 01:36:41;;;;;;;7.97;6.70;;;7.50;83.20;;;;;;5044415;28;20427;-39
2021/04/27 01:39:07;;;;;;;8.07;6.40;;;7.60;83.20;;;;;;5045978;28;20432;-40
2021/04/27 01:41:35;;;;;;;8.50;6.37;;;7.60;83.70;;;;;;5046259;28;20188;-39
2021/04/27 01:44:03;;;;;;;8.30;6.73;;;7.60;83.70;;;;;;5046343;28;20436;-41
2021/04/27 01:46:29;;;;;;;6.73;5.87;;;7.50;83.70;;;;;;5040634;28;20458;-40
2021/04/27 01:48:55;;;;;;;7.60;6.63;;;7.50;84.10;;;;;;5040702;28;20404;-41
2021/04/27 01:51:21;;;;;;;10.37;7.17;;;7.50;84.20;;;;;;5046266;28;20440;-41
2021/04/27 01:53:48;;;;;;;9.60;6.77;;;7.50;85.40;;;;;;5046092;28;20420;-40
2021/04/27 01:56:14;;;;;;;8.10;6.50;;;7.10;86.10;;;;;;5044898;28;20424;-41
2021/04/27 01:58:40;;;;;;;7.10;6.40;;;7.20;86.80;;;;;;5044587;28;20562;-39
2021/04/27 02:01:07;;;;;;;9.07;7.20;;;7.20;87.50;;;;;;5044995;28;20255;-41
2021/04/27 02:03:41;;;;;;;8.43;6.67;;;7.40;87.70;;;;;;5033892;28;20439;-41
2021/04/27 02:06:07;;;;;;;8.63;6.77;;;7.10;87.10;;;;;;5044534;28;20800;-40
2021/04/27 02:08:33;;;;;;;7.13;6.40;;;7.20;88.10;;;;;;5045671;28;20412;-46
2021/04/27 02:10:59;;;;;;;7.90;6.50;;;7.00;88.00;;;;;;5045105;28;20423;-42
2021/04/27 02:13:25;;;;;;;8.30;7.13;;;7.00;89.20;;;;;;5045813;28;20447;-40
2021/04/27 02:15:51;;;;;;;8.30;6.80;;;6.90;89.70;;;;;;5045020;28;20515;-39
2021/04/27 02:18:24;;;;;;;8.90;7.70;;;6.80;90.60;;;;;;5032174;28;20513;-43
2021/04/27 02:20:52;;;;;;;7.77;6.73;;;6.80;91.20;;;;;;5044937;28;20537;-39
2021/04/27 02:23:19;;;;;;;8.00;6.73;;;6.70;91.50;;;;;;5045416;28;20431;-41
2021/04/27 02:25:46;;;;;;;7.93;6.83;;;6.50;92.20;;;;;;5045090;28;20488;-40
2021/04/27 02:28:13;;;;;;;8.40;7.00;;;6.50;92.90;;;;;;5044055;28;20507;-39
2021/04/27 02:30:39;;;;;;;8.40;6.37;;;6.30;93.70;;;;;;5043377;28;20555;-41
2021/04/27 02:33:07;;;;;;;6.90;6.20;;;6.20;94.00;;;;;;5033089;28;20449;-40
2021/04/27 02:35:32;;;;;;;6.80;6.10;;;6.00;94.50;;;;;;5043696;28;20824;-39
2021/04/27 02:37:58;;;;;;;7.57;6.43;;;6.00;95.10;;;;;;5045349;28;20431;-39
2021/04/27 02:40:28;;;;;;;9.53;6.80;;;6.10;95.40;;;;;;5044679;28;20502;-40
2021/04/27 02:42:57;;;;;;;9.20;6.53;;;6.20;95.60;;;;;;5043863;28;20201;-39
2021/04/27 02:45:31;;;;;;;8.37;6.63;;;6.00;95.80;;;;;;5044600;28;20513;-41
2021/04/27 02:48:05;;;;;;;7.93;6.83;;;5.70;96.00;;;;;;5057491;28;20436;-39
2021/04/27 02:50:31;;;;;;;7.87;6.30;;;5.70;95.70;;;;;;5044331;28;20469;-40
2021/04/27 02:52:57;;;;;;;10.20;6.33;;;5.70;95.30;;;;;;5045142;28;20423;-39
2021/04/27 02:55:23;;;;;;;8.20;6.73;;;5.80;94.90;;;;;;5045030;28;20515;-39
2021/04/27 02:57:48;;;;;;;6.40;5.37;;;5.90;95.00;;;;;;5044828;28;20687;-39
2021/04/27 03:00:15;;;;;;;6.97;5.77;;;5.90;94.40;;;;;;5044500;28;20289;-40
2021/04/27 03:02:41;;;;;;;6.50;5.77;;;6.10;93.30;;;;;;5036606;28;20203;-42
2021/04/27 03:05:07;;;;;;;10.77;6.67;;;6.40;93.00;;;;;;5039473;28;20446;-39
2021/04/27 03:07:32;;;;;;;6.80;5.20;;;6.20;93.20;;;;;;5044926;28;20235;-42
2021/04/27 03:09:58;;;;;;;8.17;6.30;;;6.30;93.30;;;;;;5044617;28;20413;-40
2021/04/27 03:12:24;;;;;;;6.50;5.57;;;6.30;92.90;;;;;;5044810;28;20224;-40
2021/04/27 03:14:49;;;;;;;7.03;5.90;;;6.30;92.70;;;;;;5045125;28;20216;-40
2021/04/27 03:17:15;;;;;;;7.80;5.17;;;6.40;92.50;;;;;;5042080;28;20217;-39
2021/04/27 03:19:41;;;;;;;5.90;5.27;;;6.60;92.50;;;;;;5031849;28;20184;-41
2021/04/27 03:22:06;;;;;;;8.27;6.30;;;6.50;92.50;;;;;;5045257;28;20252;-39
2021/04/27 03:24:32;;;;;;;7.63;5.77;;;6.40;92.30;;;;;;5044609;28;20780;-39
2021/04/27 03:26:58;;;;;;;6.63;5.70;;;6.40;92.80;;;;;;5045767;28;20390;-40
2021/04/27 03:29:23;;;;;;;7.57;6.53;;;6.10;92.80;;;;;;5048115;28;20380;-42
2021/04/27 03:31:49;;;;;;;5.57;4.80;;;6.40;92.90;;;;;;5048811;28;20190;-39
2021/04/27 03:34:15;;;;;;;6.70;5.53;;;6.20;92.50;;;;;;5036787;28;20190;-39
2021/04/27 03:36:41;;;;;;;7.40;5.30;;;6.10;92.50;;;;;;5047039;28;20255;-39
2021/04/27 03:39:06;;;;;;;5.10;4.60;;;6.20;92.40;;;;;;5047815;28;20174;-39
2021/04/27 03:41:32;;;;;;;8.10;5.53;;;6.20;92.20;;;;;;5048475;28;20599;-40
2021/04/27 03:43:58;;;;;;;5.80;5.03;;;6.30;92.10;;;;;;5048285;28;20668;-39
2021/04/27 03:46:23;;;;;;;12.10;5.73;;;6.50;92.10;;;;;;5047201;28;20313;-39
2021/04/27 03:48:49;;;;;;;5.60;5.00;;;6.40;91.90;;;;;;5039984;28;20282;-40
2021/04/27 03:51:15;;;;;;;5.60;5.10;;;6.20;91.80;;;;;;5047482;28;20193;-40
2021/04/27 03:53:41;;;;;;;5.60;4.93;;;6.40;91.80;;;;;;5048417;28;20247;-40
2021/04/27 03:56:06;;;;;;;8.83;5.23;;;6.20;91.90;;;;;;5034484;28;20194;-39
2021/04/27 03:58:32;;;;;;;6.30;5.70;;;6.10;92.00;;;;;;5046756;28;20428;-39
2021/04/27 04:00:58;;;;;;;6.73;5.23;;;6.10;92.00;;;;;;5047692;28;20181;-40
2021/04/27 04:03:23;;;;;;;6.70;5.40;;;5.90;92.00;;;;;;5043640;28;20562;-39
2021/04/27 04:05:49;;;;;;;6.37;4.83;;;6.00;92.20;;;;;;5038265;28;20206;-40
2021/04/27 04:08:15;;;;;;;6.53;4.83;;;6.00;92.00;;;;;;5046835;28;20178;-40
2021/04/27 04:10:41;;;;;;;9.70;4.87;;;6.10;92.40;;;;;;5047389;28;20525;-39
2021/04/27 04:13:06;;;;;;;4.93;4.43;;;6.00;92.20;;;;;;5048049;28;20193;-40
2021/04/27 04:15:32;;;;;;;7.17;4.70;;;6.00;92.40;;;;;;5047800;28;20327;-39
2021/04/27 04:17:58;;;;;;;5.53;5.03;;;6.10;92.70;;;;;;5048083;28;20196;-39
2021/04/27 04:20:25;;;;;;;5.07;4.00;;;6.00;92.60;;;;;;5034687;28;20224;-42
2021/04/27 04:22:52;;;;;;;6.53;4.63;;;6.20;92.30;;;;;;5047634;28;20185;-39
2021/04/27 04:25:18;;;;;;;5.03;4.30;;;5.90;91.80;;;;;;5047731;28;20992;-39
2021/04/27 04:27:44;;;;;;;8.00;4.83;;;5.90;91.70;;;;;;5047699;28;20460;-41
2021/04/27 04:30:17;;;;;;;4.87;4.30;;;6.10;91.60;;;;;;5047210;28;20420;-39
2021/04/27 04:32:43;;;;;;;5.63;5.03;;;6.00;91.30;;;;;;5047621;28;20718;-43
2021/04/27 04:35:11;;;;;;;9.20;4.93;;;5.90;91.10;;;;;;5038732;28;20537;-40
2021/04/27 04:37:37;;;;;;;8.93;4.67;;;6.00;91.10;;;;;;5039655;28;20401;-40
2021/04/27 04:40:07;;;;;;;6.37;4.87;;;6.30;91.00;;;;;;5046699;28;20426;-39
2021/04/27 04:42:33;;;;;;;9.03;5.83;;;6.30;91.00;;;;;;5047183;28;20515;-40
2021/04/27 04:44:59;;;;;;;7.43;5.40;;;6.10;91.00;;;;;;5046068;28;20526;-39
2021/04/27 04:47:25;;;;;;;7.37;5.43;;;6.20;91.00;;;;;;5047227;28;20178;-39
2021/04/27 04:49:50;;;;;;;7.27;5.87;;;6.60;91.00;;;;;;5036736;28;20728;-42
2021/04/27 04:52:16;;;;;;;4.50;3.90;;;6.40;90.70;;;;;;5046663;28;20420;-40
2021/04/27 04:54:42;;;;;;;6.90;4.60;;;6.30;90.70;;;;;;5047075;28;20189;-40
2021/04/27 04:57:08;;;;;;;7.00;5.03;;;6.40;90.70;;;;;;5046776;28;20278;-39
2021/04/27 04:59:33;;;;;;;5.83;4.30;;;6.40;90.60;;;;;;5043122;28;20636;-39
2021/04/27 05:01:59;;;;;;;6.67;4.47;;;6.40;90.60;;;;;;5048702;28;20189;-40
2021/04/27 05:04:25;;;;;;;6.90;4.60;;;6.40;90.40;;;;;;5044102;28;20189;-40
2021/04/27 05:06:52;;;;;;;9.30;4.90;;;6.50;90.40;;;;;;5045864;28;20480;-40
2021/04/27 05:09:18;;;;;;;4.80;4.30;;;6.60;90.50;;;;;;5045434;28;20581;-40
2021/04/27 05:11:44;;;;;;;4.70;4.20;;;6.50;90.20;;;;;;5047009;28;20583;-41
2021/04/27 05:14:10;;;;;;;9.53;4.80;;;6.50;90.10;;;;;;5045447;28;20416;-42
2021/04/27 05:16:35;;;;;;;5.10;4.27;;;6.60;90.20;;;;;;5046939;28;20516;-39
2021/04/27 05:19:03;;;;;;;10.83;4.60;;;6.40;90.20;;;;;;5046152;28;20231;-40
2021/04/27 05:21:29;;;;;;;5.50;4.50;;;6.80;90.10;;;;;;5047073;28;20194;-40
2021/04/27 05:23:55;;;;;;;5.20;4.70;;;6.70;89.60;;;;;;5046922;28;20561;-40
2021/04/27 05:26:21;;;;;;;7.50;4.43;;;6.70;89.20;;;;;;5046260;28;20665;-40
2021/04/27 05:28:47;;;;;;;4.80;3.67;;;6.80;88.90;;;;;;5041345;28;20217;-39
2021/04/27 05:31:12;;;;;;;7.40;4.20;;;6.90;88.60;;;;;;5040450;28;20218;-40
2021/04/27 05:33:38;;;;;;;6.27;4.73;;;7.10;88.30;;;;;;5045025;28;20476;-40
2021/04/27 05:36:04;;;;;;;4.93;4.33;;;7.00;87.60;;;;;;5045561;28;20280;-41
2021/04/27 05:38:30;;;;;;;6.87;4.40;;;7.30;87.30;;;;;;5046446;28;20188;-40
2021/04/27 05:40:56;;;;;;;5.90;3.77;;;7.30;87.20;;;;;;5041625;28;20772;-40
2021/04/27 05:43:22;;;;;;;4.90;4.40;;;7.40;86.30;;;;;;5045098;28;20185;-39
2021/04/27 05:45:48;;;;;;;3.93;3.47;;;7.50;85.50;;;;;;5033513;28;20313;-40
2021/04/27 05:48:13;;;;;;;4.70;4.00;;;7.60;85.40;;;;;;5046656;28;20662;-40
2021/04/27 05:50:39;;;;;;;6.83;4.37;;;8.00;84.10;;;;;;5045272;28;20186;-42
2021/04/27 05:53:05;;;;;;;5.67;4.77;;;8.10;82.60;;;;;;5045870;28;20280;-40
2021/04/27 05:55:31;;;;;;;6.60;4.77;;;8.40;82.60;;;;;;5046189;28;20495;-44
2021/04/27 05:57:58;;;;;;;5.33;3.87;;;8.80;81.80;;;;;;5046038;28;20523;-43
2021/04/27 06:00:23;;;;;;;4.03;3.53;;;8.80;80.80;;;;;;5033969;28;20985;-43
2021/04/27 06:02:50;;;;;;;7.47;4.30;;;9.00;79.70;;;;;;5045610;28;20428;-43
2021/04/27 06:05:15;;;;;;;6.70;4.00;;;9.40;77.60;;;;;;5043941;28;20208;-44
2021/04/27 06:07:41;;;;;;;4.27;3.80;;;9.80;76.30;;;;;;5045438;28;20927;-42
2021/04/27 06:10:08;;;;;;;4.17;3.77;;;10.00;74.00;;;;;;5045372;28;20193;-43
2021/04/27 06:12:33;;;;;;;8.47;4.23;;;10.30;73.50;;;;;;5043950;28;20403;-42
2021/04/27 06:14:59;;;;;;;5.27;3.53;;;10.50;71.90;;;;;;5036207;28;20437;-40
2021/04/27 06:17:25;;;;;;;7.60;4.03;;;10.60;71.20;;;;;;5044780;28;20208;-40
2021/04/27 06:19:51;;;;;;;5.33;4.00;;;10.90;69.70;;;;;;5045101;28;20422;-42
2021/04/27 06:22:17;;;;;;;3.93;3.53;;;11.10;69.60;;;;;;5045757;28;20845;-40
2021/04/27 06:24:43;;;;;;;4.60;3.40;;;11.30;67.30;;;;;;5048007;28;20260;-40
2021/04/27 06:27:09;;;;;;;4.50;3.37;;;11.30;68.80;;;;;;5065919;28;20988;-40
2021/04/27 06:29:35;;;;;;;5.03;3.50;;;11.40;68.40;;;;;;5053930;28;20533;-42
2021/04/27 06:32:00;;;;;;;3.97;3.67;;;11.60;66.40;;;;;;5035549;28;20547;-43
2021/04/27 06:34:26;;;;;;;4.50;3.60;;;11.70;67.40;;;;;;5045340;28;20194;-46
2021/04/27 06:36:52;;;;;;;5.90;3.40;;;11.90;65.80;;;;;;5044557;28;20763;-41
2021/04/27 06:39:18;;;;;;;4.80;4.13;;;12.10;65.00;;;;;;5046615;28;20194;-42
2021/04/27 06:41:44;;;;;;;4.77;3.10;;;12.20;64.40;;;;;;5064425;28;20461;-42
2021/04/27 06:44:09;;;;;;;4.80;3.97;;;12.30;63.60;;;;;;5048162;28;20451;-42
2021/04/27 06:46:35;;;;;;;4.60;3.77;;;12.20;62.40;;;;;;5039956;28;20247;-40
2021/04/27 06:49:01;;;;;;;4.57;3.30;;;12.20;65.60;;;;;;5044230;28;20556;-41
2021/04/27 06:51:27;;;;;;;3.70;3.20;;;12.20;62.90;;;;;;5043661;28;20213;-40
2021/04/27 06:53:53;;;;;;;3.53;2.97;;;12.40;62.10;;;;;;5045303;28;20478;-46
2021/04/27 06:56:19;;;;;;;6.97;3.37;;;12.60;61.20;;;;;;5045272;28;20424;-45
2021/04/27 06:58:45;;;;;;;4.83;3.27;;;12.70;58.60;;;;;;5045311;28;20915;-44
2021/04/27 07:01:10;;;;;;;3.90;2.87;;;12.80;58.00;;;;;;5031571;28;20194;-43
2021/04/27 07:03:36;;;;;;;4.80;3.10;;;12.80;57.90;;;;;;5045309;28;20220;-48
2021/04/27 07:06:03;;;;;;;4.63;3.43;;;12.80;57.50;;;;;;5045003;28;20974;-46
2021/04/27 07:08:29;;;;;;;3.60;2.90;;;12.90;58.10;;;;;;5045441;28;20524;-44
2021/04/27 07:10:57;;;;;;;7.23;4.60;;;12.90;56.90;;;;;;5044749;28;20424;-46
2021/04/27 07:13:25;;;;;;;3.30;3.00;;;12.90;56.50;;;;;;5045141;28;20428;-40
2021/04/27 07:15:50;;;;;;;3.37;3.00;;;13.00;55.90;;;;;;5035795;28;20429;-43
2021/04/27 07:18:16;;;;;;;4.50;2.73;;;12.90;55.20;;;;;;5044210;28;20933;-44
2021/04/27 07:20:43;;;;;;;5.30;2.70;;;12.90;54.80;;;;;;5044623;28;20201;-47
2021/04/27 07:23:09;;;;;;;6.50;2.90;;;12.90;53.70;;;;;;5044687;28;20289;-41
2021/04/27 07:25:36;;;;;;;5.10;2.73;;;12.90;53.40;;;;;;5044381;28;20567;-45
2021/04/27 07:28:04;;;;;;;4.13;2.70;;;12.80;53.70;;;;;;5027059;28;20413;-44
2021/04/27 07:30:31;;;;;;;5.10;2.80;;;12.60;53.40;;;;;;5032722;28;20573;-44
2021/04/27 07:32:57;;;;;;;2.70;2.50;;;12.50;54.10;;;;;;5041390;28;20555;-40
2021/04/27 07:35:23;;;;;;;4.90;2.43;;;12.30;54.20;;;;;;5042853;28;20535;-40
2021/04/27 07:37:48;;;;;;;3.30;2.40;;;12.30;54.50;;;;;;5043148;28;20523;-40
2021/04/27 07:40:14;;;;;;;3.60;2.67;;;12.20;54.10;;;;;;5041895;28;20562;-40
2021/04/27 07:42:40;;;;;;;3.70;2.70;;;12.10;54.80;;;;;;5042730;28;20295;-41
2021/04/27 07:45:07;;;;;;;3.37;2.40;;;12.10;53.50;;;;;;5039925;28;20425;-43
2021/04/27 07:47:33;;;;;;;3.10;2.80;;;12.10;52.90;;;;;;5037737;28;20716;-43
2021/04/27 07:49:59;;;;;;;4.50;3.00;;;12.20;53.60;;;;;;5043558;28;20423;-41
2021/04/27 07:52:26;;;;;;;3.43;2.90;;;12.20;53.20;;;;;;5044511;28;20420;-40
2021/04/27 07:54:53;;;;;;;3.97;2.67;;;12.10;53.20;;;;;;5043807;28;20182;-40
2021/04/27 07:57:19;;;;;;;5.60;2.70;;;12.00;53.30;;;;;;5044304;28;20729;-42
2021/04/27 07:59:45;;;;;;;6.10;2.70;;;12.00;54.10;;;;;;5041325;28;20521;-41
2021/04/27 08:02:10;;;;;;;5.50;2.60;;;12.10;54.50;;;;;;5036015;28;20465;-42
2021/04/27 08:04:36;;;;;;;3.63;2.60;;;12.10;53.70;;;;;;5044014;28;20194;-40
2021/04/27 08:07:02;;;;;;;3.30;2.67;;;12.10;54.10;;;;;;5043722;28;20472;-43
2021/04/27 08:09:28;;;;;;;3.60;2.60;;;12.10;53.00;;;;;;5043914;28;20550;-42
2021/04/27 08:11:54;;;;;;;3.17;2.80;;;12.10;53.30;;;;;;5044409;28;20404;-40
2021/04/27 08:14:21;;;;;;;4.97;2.43;;;12.10;53.30;;;;;;5046027;28;20181;-41
2021/04/27 08:16:47;;;;;;;3.47;2.47;;;12.10;52.10;;;;;;5036629;28;20488;-46
2021/04/27 08:19:13;;;;;;;3.20;2.47;;;12.10;52.10;;;;;;5045810;28;20432;-42
2021/04/27 08:21:39;;;;;;;3.00;2.57;;;12.20;53.20;;;;;;5047585;28;20429;-40
2021/04/27 08:24:06;;;;;;;3.10;2.70;;;12.20;52.90;;;;;;5048116;28;20665;-40
2021/04/27 08:26:31;;;;;;;3.17;2.27;;;12.20;52.40;;;;;;5046596;28;20522;-41
2021/04/27 08:28:57;;;;;;;4.53;2.40;;;12.30;51.20;;;;;;5047542;28;20942;-46
2021/04/27 08:31:23;;;;;;;6.53;2.77;;;12.30;51.90;;;;;;5041074;28;20474;-45
2021/04/27 08:33:49;;;;;;;4.03;3.57;;;12.30;52.40;;;;;;5043377;28;20217;-40
2021/04/27 08:36:15;;;;;;;3.13;2.80;;;12.30;53.30;;;;;;5046968;28;20420;-40
2021/04/27 08:38:41;;;;;;;2.87;2.50;;;12.40;51.90;;;;;;5047539;28;20190;-42
2021/04/27 08:41:08;;;;;;;2.53;2.30;;;12.20;52.30;;;;;;5046556;28;20744;-41
2021/04/27 08:43:34;;;;;;;5.20;2.83;;;12.20;50.80;;;;;;5047270;28;20420;-40
2021/04/27 08:46:00;;;;;;;3.10;2.37;;;12.30;51.70;;;;;;5041526;28;20541;-42
2021/04/27 08:48:27;;;;;;;2.70;2.27;;;12.30;50.90;;;;;;5041652;28;20416;-42
2021/04/27 08:50:53;;;;;;;4.33;2.63;;;12.40;54.00;;;;;;5045410;28;20416;-43
2021/04/27 08:53:21;;;;;;;3.27;2.47;;;12.40;51.60;;;;;;5047766;28;21009;-41
2021/04/27 08:55:47;;;;;;;2.80;2.20;;;12.50;51.30;;;;;;5047464;28;20421;-42
2021/04/27 08:58:14;;;;;;;3.93;2.33;;;12.60;50.30;;;;;;5047900;28;20506;-41
2021/04/27 09:00:41;;;;;;;3.33;2.47;;;12.60;50.30;;;;;;5042586;28;20433;-42
2021/04/27 09:03:09;;;;;;;3.00;2.67;;;12.70;49.80;;;;;;5042340;28;20536;-40
2021/04/27 09:05:38;;;;;;;2.43;2.20;;;12.80;49.90;;;;;;5046772;28;20474;-43
2021/04/27 09:08:04;;;;;;;2.47;2.20;;;12.90;50.10;;;;;;5047000;28;20479;-41
2021/04/27 09:10:39;;;;;;;3.20;2.40;;;13.00;50.30;;;;;;5043974;28;20482;-40
2021/04/27 09:13:18;;;;;;;3.20;2.40;;;13.20;49.40;;;;;;5043203;28;20423;-41
2021/04/27 09:15:50;;;;;;;4.10;2.87;;;13.30;51.30;;;;;;5042248;28;20449;-42
2021/04/27 09:18:31;;;;;;;3.20;2.63;;;13.30;50.20;;;;;;5039377;28;20420;-43
2021/04/27 09:21:06;;;;;;;4.37;2.40;;;13.50;49.70;;;;;;5044548;28;21037;-40
2021/04/27 09:23:34;;;;;;;3.97;2.47;;;13.70;48.80;;;;;;5045245;28;20477;-44
2021/04/27 09:26:19;;;;;;;4.30;2.60;;;14.00;48.90;;;;;;5045980;28;21014;-41
2021/04/27 09:28:51;;;;;;;3.90;2.70;;;14.20;50.60;;;;;;5045724;28;20848;-43
2021/04/27 09:31:32;;;;;;;5.50;2.90;;;14.40;47.40;;;;;;5039295;28;20507;-45
2021/04/27 09:34:18;;;;;;;2.40;2.20;;;14.50;47.10;;;;;;5042906;28;20485;-43
2021/04/27 09:36:43;;;;;;;3.00;2.70;;;14.80;48.00;;;;;;5036110;28;21020;-40
2021/04/27 09:39:09;;;;;;;2.80;2.50;;;15.10;46.10;;;;;;5045558;28;20412;-40
2021/04/27 09:41:35;;;;;;;3.30;2.40;;;15.20;45.10;;;;;;5043460;28;20686;-47
2021/04/27 09:44:01;;;;;;;3.97;2.87;;;15.30;45.30;;;;;;5045077;28;20268;-41
2021/04/27 09:46:26;;;;;;;4.93;2.63;;;15.50;48.40;;;;;;5037357;28;20438;-40
2021/04/27 09:48:55;;;;;;;3.80;2.60;;;15.60;47.00;;;;;;5040548;28;20177;-45
2021/04/27 09:51:33;;;;;;;3.47;2.63;;;15.80;46.40;;;;;;5045395;28;20196;-44
2021/04/27 09:54:04;;;;;;;3.60;2.93;;;15.80;44.50;;;;;;5045617;28;20790;-40
2021/04/27 09:56:51;;;;;;;3.70;2.70;;;15.80;46.00;;;;;;5044163;28;20490;-45
2021/04/27 09:59:31;;;;;;;6.83;2.83;;;15.90;47.20;;;;;;5044301;28;20511;-44
2021/04/27 10:02:04;;;;;;;3.13;2.70;;;16.00;46.20;;;;;;5038321;28;21013;-46
2021/04/27 10:04:30;;;;;;;3.50;2.90;;;16.10;50.00;;;;;;5037894;28;20465;-44
2021/04/27 10:06:58;;;;;;;3.40;2.70;;;16.20;48.70;;;;;;5044246;28;20464;-44
2021/04/27 10:09:26;;;;;;;2.90;2.50;;;16.20;47.80;;;;;;5044394;28;20271;-41
2021/04/27 10:11:52;;;;;;;2.70;2.50;;;16.20;49.00;;;;;;5042963;28;20981;-44
2021/04/27 10:14:18;;;;;;;3.27;2.97;;;16.40;48.30;;;;;;5045466;28;20885;-41
2021/04/27 10:16:44;;;;;;;3.20;2.97;;;16.50;45.50;;;;;;5041132;28;20520;-44
2021/04/27 10:19:10;;;;;;;3.70;2.60;;;16.60;46.00;;;;;;5037111;28;20511;-44
2021/04/27 10:21:37;;;;;;;3.17;2.67;;;16.50;45.60;;;;;;5044244;28;20412;-42
2021/04/27 10:24:08;;;;;;;4.10;3.70;;;16.60;45.80;;;;;;5042170;28;20451;-40
2021/04/27 10:26:36;;;;;;;2.40;2.20;;;16.70;47.00;;;;;;5057856;28;20470;-43
2021/04/27 10:29:22;;;;;;;3.93;3.00;;;16.90;46.30;;;;;;5044640;28;20418;-42
2021/04/27 10:32:15;;;;;;;3.23;2.93;;;17.00;47.40;;;;;;5042847;28;20427;-41
2021/04/27 10:34:58;;;;;;;3.20;2.57;;;17.00;45.90;;;;;;5041343;28;20647;-42
2021/04/27 10:37:32;;;;;;;3.20;2.57;;;17.10;45.00;;;;;;5034064;28;20420;-46
2021/04/27 10:39:57;;;;;;;3.40;2.53;;;17.20;46.10;;;;;;5031883;28;20420;-40
2021/04/27 10:42:31;;;;;;;2.90;2.53;;;17.40;45.80;;;;;;5044907;28;20419;-41
2021/04/27 10:45:02;;;;;;;3.20;2.57;;;17.50;47.00;;;;;;5043599;28;20429;-43
2021/04/27 10:47:38;;;;;;;4.17;3.07;;;17.60;44.60;;;;;;5037728;28;20519;-42
2021/04/27 10:50:05;;;;;;;3.57;3.23;;;17.40;43.70;;;;;;5041597;28;20804;-46
2021/04/27 10:52:36;;;;;;;4.00;2.80;;;17.50;47.30;;;;;;5044526;28;20481;-44
2021/04/27 10:55:37;;;;;;;3.37;3.03;;;17.50;45.70;;;;;;5040660;28;20424;-41
2021/04/27 10:58:04;;;;;;;2.63;2.43;;;17.40;46.00;;;;;;5041058;28;20983;-44
2021/04/27 11:00:41;;;;;;;3.20;2.90;;;17.20;46.10;;;;;;5042818;28;20826;-46
2021/04/27 11:03:27;;;;;;;3.53;2.80;;;17.20;48.00;;;;;;5041625;28;20420;-42
2021/04/27 11:06:20;;;;;;;3.63;2.83;;;17.00;45.20;;;;;;5041328;28;20658;-42
2021/04/27 11:08:59;;;;;;;3.97;3.07;;;16.90;45.30;;;;;;5044887;28;20582;-43
2021/04/27 11:11:30;;;;;;;3.30;3.00;;;17.10;45.70;;;;;;5042295;28;20428;-41
2021/04/27 11:14:17;;;;;;;4.77;2.70;;;17.30;48.20;;;;;;5042720;28;20749;-43
2021/04/27 11:16:48;;;;;;;4.10;3.40;;;17.50;45.70;;;;;;5057632;28;21006;-41
2021/04/27 11:19:20;;;;;;;5.00;2.90;;;17.60;43.50;;;;;;5038500;28;20515;-44
2021/04/27 11:21:51;;;;;;;3.93;2.90;;;17.60;43.40;;;;;;5043370;28;20466;-46
2021/04/27 11:24:39;;;;;;;3.30;3.00;;;17.60;46.10;;;;;;5043551;28;20431;-41
2021/04/27 11:27:25;;;;;;;3.53;3.00;;;17.80;43.80;;;;;;5042146;28;20799;-41
2021/04/27 11:30:04;;;;;;;3.27;2.97;;;17.90;46.00;;;;;;5033363;28;20948;-43
2021/04/27 11:32:31;;;;;;;4.10;3.50;;;17.90;44.30;;;;;;5043749;28;20431;-46
2021/04/27 11:35:29;;;;;;;3.17;2.87;;;17.90;42.60;;;;;;5043461;28;20428;-42
2021/04/27 11:37:59;;;;;;;3.90;3.23;;;18.00;44.40;;;;;;5046531;28;20416;-49
2021/04/27 11:40:32;;;;;;;5.43;3.60;;;17.90;41.70;;;;;;5031246;28;20436;-44
2021/04/27 11:43:03;;;;;;;4.23;3.10;;;17.90;41.30;;;;;;5042677;28;20565;-44
2021/04/27 11:45:33;;;;;;;3.53;3.10;;;17.80;44.50;;;;;;5043945;28;20950;-41
2021/04/27 11:47:59;;;;;;;4.37;3.10;;;17.70;44.50;;;;;;5045308;28;20530;-43
2021/04/27 11:50:28;;;;;;;3.50;3.20;;;17.70;41.50;;;;;;5043467;28;20420;-44
2021/04/27 11:53:04;;;;;;;3.87;2.83;;;17.50;41.10;;;;;;5053953;28;20404;-44
2021/04/27 11:55:34;;;;;;;3.37;3.07;;;17.60;45.50;;;;;;5054560;28;20852;-42
2021/04/27 11:58:15;;;;;;;6.03;3.20;;;17.70;45.80;;;;;;5046110;28;20442;-46
2021/04/27 12:01:01;;;;;;;3.70;3.27;;;17.90;44.60;;;;;;5046812;28;20416;-42
2021/04/27 12:03:27;;;;;;;3.47;2.90;;;18.10;45.50;;;;;;5046339;28;20463;-44
2021/04/27 12:05:53;;;;;;;2.80;2.60;;;18.10;47.00;;;;;;5036350;28;21268;-43
2021/04/27 12:08:25;;;;;;;7.93;3.00;;;18.30;45.30;;;;;;5047313;28;20656;-46
2021/04/27 12:11:09;;;;;;;4.90;2.70;;;18.30;45.20;;;;;;5042218;28;20182;-41
2021/04/27 12:13:35;;;;;;;3.47;2.53;;;18.20;43.50;;;;;;5046655;28;20427;-44
2021/04/27 12:16:11;;;;;;;5.70;3.20;;;18.00;42.80;;;;;;5048164;28;20942;-41
2021/04/27 12:18:56;;;;;;;6.10;3.77;;;17.90;43.20;;;;;;5047555;28;20207;-45
2021/04/27 12:22:07;;;;;;;3.90;2.83;;;17.90;44.20;;;;;;5047225;28;20436;-41
2021/04/27 12:24:42;;;;;;;6.00;3.53;;;18.10;44.40;;;;;;5039296;28;20412;-41
2021/04/27 12:27:09;;;;;;;6.60;3.13;;;18.10;43.50;;;;;;5044100;28;20460;-43
2021/04/27 12:29:40;;;;;;;5.90;3.43;;;18.00;44.30;;;;;;5045507;28;20420;-42
2021/04/27 12:32:13;;;;;;;6.47;2.67;;;18.10;44.10;;;;;;5047687;28;20954;-44
2021/04/27 12:34:59;;;;;;;3.00;2.70;;;18.10;44.60;;;;;;5047470;28;20559;-40
2021/04/27 12:37:26;;;;;;;3.83;2.53;;;18.10;44.40;;;;;;5046492;28;20428;-43
2021/04/27 12:39:53;;;;;;;5.17;2.93;;;18.20;43.20;;;;;;5029819;28;20559;-44
2021/04/27 12:42:27;;;;;;;4.67;3.27;;;18.30;46.60;;;;;;5042281;28;20412;-43
2021/04/27 12:45:06;;;;;;;3.93;3.43;;;18.40;47.40;;;;;;5047346;28;20458;-43
2021/04/27 12:47:34;;;;;;;6.27;3.67;;;18.40;46.40;;;;;;5045178;28;20463;-44
2021/04/27 12:50:08;;;;;;;7.50;3.03;;;18.30;45.50;;;;;;5046363;28;20420;-44
2021/04/27 12:52:53;;;;;;;3.33;2.93;;;18.40;45.50;;;;;;5047305;28;20501;-41
2021/04/27 12:55:20;;;;;;;6.17;3.43;;;18.40;43.00;;;;;;5043214;28;20432;-44
2021/04/27 12:57:46;;;;;;;3.10;2.80;;;18.30;44.50;;;;;;5044954;28;20462;-45
2021/04/27 13:00:18;;;;;;;3.00;2.80;;;18.40;47.00;;;;;;5045334;28;20420;-44